Time;durP1;ratioP1;P1;durP2;ratioP2;P2;SDS_P1;SDS_P2;PMS_P1;PMS_P2;Temp;Humidity;BMP_temperature;BMP_pressure;BME280_temperature;BME280_humidity;BME280_pressure;Samples;Min_cycle;Max_cycle;Signal;HPM_P1;HPM_P2
2021/08/11 00:00:11;;;;;;;7.47;6.68;;;;;;;25.89;38.14;93989.28;4978407;28;20049;-76
2021/08/11 00:02:37;;;;;;;9.38;6.63;;;;;;;25.76;39.06;93963.75;4981212;28;20038;-76
2021/08/11 00:05:03;;;;;;;8.88;6.38;;;;;;;25.85;38.12;93981.13;4987216;28;20049;-77
2021/08/11 00:07:28;;;;;;;12.00;6.15;;;;;;;25.96;38.93;93975.56;4978406;28;20100;-76
2021/08/11 00:09:54;;;;;;;8.23;6.45;;;;;;;25.83;38.76;93974.53;4975206;28;20373;-77
2021/08/11 00:12:19;;;;;;;9.23;5.70;;;;;;;25.86;38.17;93965.56;4979186;28;20153;-75
2021/08/11 00:14:45;;;;;;;7.03;5.88;;;;;;;25.87;38.53;93964.38;4993900;28;20034;-75
2021/08/11 00:17:10;;;;;;;7.13;6.18;;;;;;;25.68;39.44;93958.34;4974405;28;20046;-76
2021/08/11 00:19:35;;;;;;;9.73;6.70;;;;;;;25.63;39.52;93960.75;4983041;28;20076;-77
2021/08/11 00:22:01;;;;;;;8.10;5.80;;;;;;;25.62;38.80;93959.97;4976677;28;20042;-77
2021/08/11 00:24:27;;;;;;;7.28;5.88;;;;;;;25.59;38.67;93974.41;4980226;28;20030;-78
2021/08/11 00:26:52;;;;;;;7.93;5.50;;;;;;;25.61;38.53;93963.88;4982886;28;20567;-77
2021/08/11 00:29:17;;;;;;;6.00;5.45;;;;;;;25.64;38.30;93968.53;4974954;28;20409;-76
2021/08/11 00:31:43;;;;;;;7.45;5.82;;;;;;;25.57;38.52;93952.25;4975732;28;20066;-78
2021/08/11 00:34:08;;;;;;;5.85;5.30;;;;;;;25.49;37.85;93942.59;4976590;28;20049;-77
2021/08/11 00:36:33;;;;;;;7.90;5.90;;;;;;;25.31;38.12;93961.06;4978604;28;20513;-77
2021/08/11 00:38:59;;;;;;;6.38;5.63;;;;;;;25.16;38.58;93975.94;4981087;28;20847;-77
2021/08/11 00:41:25;;;;;;;7.95;5.53;;;;;;;25.13;38.39;93976.72;4984295;28;20400;-78
2021/08/11 00:43:53;;;;;;;7.00;6.10;;;;;;;25.19;38.60;93986.03;4980777;28;20026;-77
2021/08/11 00:46:18;;;;;;;7.15;6.15;;;;;;;25.05;38.79;93986.13;4975724;28;20509;-78
2021/08/11 00:48:44;;;;;;;9.05;5.97;;;;;;;25.12;40.03;93972.50;4977401;28;20161;-77
2021/08/11 00:51:09;;;;;;;6.22;5.63;;;;;;;25.08;40.70;93958.91;4976675;28;20516;-77
2021/08/11 00:53:38;;;;;;;9.63;5.75;;;;;;;25.17;39.81;93977.50;4975526;28;20489;-77
2021/08/11 00:56:04;;;;;;;8.93;5.70;;;;;;;25.10;39.25;93972.09;4975242;28;20339;-77
2021/08/11 00:58:31;;;;;;;7.03;5.40;;;;;;;25.19;39.68;93975.13;4977473;28;20054;-78
2021/08/11 01:00:59;;;;;;;6.32;5.35;;;;;;;25.13;38.95;93957.69;4982763;28;20054;-78
2021/08/11 01:03:26;;;;;;;8.48;5.50;;;;;;;25.16;39.17;93981.38;4976575;28;20096;-77
2021/08/11 01:05:53;;;;;;;6.65;6.10;;;;;;;25.05;40.26;93975.25;4977664;28;20444;-76
2021/08/11 01:08:20;;;;;;;7.25;5.63;;;;;;;25.08;39.68;93969.78;4982298;28;20039;-76
2021/08/11 01:10:49;;;;;;;10.77;5.38;;;;;;;25.20;39.63;93972.03;4977398;28;20026;-77
2021/08/11 01:13:16;;;;;;;6.53;5.72;;;;;;;25.03;39.45;93966.75;4978819;28;20042;-76
2021/08/11 01:15:48;;;;;;;6.90;5.75;;;;;;;24.92;39.71;93949.72;4975905;28;20501;-77
2021/08/11 01:18:18;;;;;;;8.95;6.40;;;;;;;24.96;40.04;93967.56;4975369;28;20689;-77
2021/08/11 01:21:06;;;;;;;9.93;6.28;;;;;;;24.87;40.26;93969.19;4977109;28;20030;-77
2021/08/11 01:23:45;;;;;;;7.32;6.03;;;;;;;24.77;40.23;93949.84;4980086;28;20408;-76
2021/08/11 01:26:21;;;;;;;8.30;6.07;;;;;;;24.87;40.12;93964.53;4985231;28;20282;-78
2021/08/11 01:29:02;;;;;;;7.97;6.60;;;;;;;24.70;39.85;93933.53;4972754;28;20108;-77
2021/08/11 01:31:54;;;;;;;7.20;5.93;;;;;;;24.72;40.14;93931.22;4975933;28;20508;-78
2021/08/11 01:34:28;;;;;;;6.03;5.53;;;;;;;24.82;39.88;93949.41;4958197;28;20073;-77
2021/08/11 01:36:58;;;;;;;8.48;6.47;;;;;;;24.80;39.90;93949.03;4972579;28;20048;-77
2021/08/11 01:39:37;;;;;;;6.20;5.20;;;;;;;24.77;39.83;93938.19;4975737;28;20452;-77
2021/08/11 01:42:02;;;;;;;7.50;6.28;;;;;;;24.79;39.46;93942.03;4984583;28;20102;-77
2021/08/11 01:44:36;;;;;;;6.60;5.30;;;;;;;24.73;40.09;93938.22;4975671;28;20513;-77
2021/08/11 01:47:03;;;;;;;6.38;5.78;;;;;;;24.65;39.79;93925.78;4982830;28;20489;-78
2021/08/11 01:49:33;;;;;;;9.48;5.57;;;;;;;24.75;39.32;93935.06;4979155;28;20477;-77
2021/08/11 01:52:00;;;;;;;5.43;4.82;;;;;;;24.67;39.67;93930.84;4977743;28;20049;-78
2021/08/11 01:54:26;;;;;;;5.45;4.93;;;;;;;24.05;41.06;93909.06;4976482;28;20042;-77
2021/08/11 01:56:53;;;;;;;5.75;5.22;;;;;;;24.39;40.49;93926.38;4989356;28;20398;-76
2021/08/11 01:59:19;;;;;;;9.93;5.30;;;;;;;24.35;40.76;93941.91;4976123;28;20037;-77
2021/08/11 02:01:45;;;;;;;7.07;5.40;;;;;;;24.41;40.39;93943.03;4976943;28;20034;-76
2021/08/11 02:04:13;;;;;;;8.65;6.00;;;;;;;24.51;40.42;93944.91;4976913;28;20030;-77
2021/08/11 02:06:40;;;;;;;6.07;5.47;;;;;;;24.38;40.40;93943.84;4979983;28;20042;-77
2021/08/11 02:09:05;;;;;;;6.13;5.35;;;;;;;24.39;40.85;93945.41;4977405;28;20073;-77
2021/08/11 02:11:37;;;;;;;10.75;6.22;;;;;;;24.22;41.35;93924.53;4975355;28;20475;-77
2021/08/11 02:14:04;;;;;;;8.07;6.50;;;;;;;24.21;41.13;93945.47;4975824;28;20038;-77
2021/08/11 02:16:29;;;;;;;9.52;6.93;;;;;;;24.22;41.32;93929.97;4980328;28;20037;-78
2021/08/11 02:18:55;;;;;;;6.45;5.85;;;;;;;24.26;41.82;93957.88;4976895;28;20046;-78
2021/08/11 02:21:20;;;;;;;7.78;6.95;;;;;;;24.20;41.58;93937.75;4979760;28;20562;-77
2021/08/11 02:23:46;;;;;;;6.65;5.85;;;;;;;24.19;41.37;93949.78;4975637;28;20153;-77
2021/08/11 02:27:04;;;;;;;6.57;6.03;;;;;;;24.14;41.41;93956.41;4978639;28;20523;-77
2021/08/11 02:29:38;;;;;;;7.68;6.38;;;;;;;24.05;41.62;93947.88;4952528;28;20081;-76
2021/08/11 02:32:20;;;;;;;7.53;6.00;;;;;;;24.01;41.84;93947.88;4977766;28;20034;-76
2021/08/11 02:35:02;;;;;;;8.00;5.32;;;;;;;24.01;42.09;93952.53;4976994;28;20113;-77
2021/08/11 02:37:34;;;;;;;9.77;5.93;;;;;;;24.01;41.86;93952.53;4979492;28;20114;-77
2021/08/11 02:40:26;;;;;;;7.53;6.00;;;;;;;24.10;41.96;93947.44;4976589;28;20251;-76
2021/08/11 02:42:58;;;;;;;6.45;5.45;;;;;;;23.86;42.13;93951.81;4974101;28;20564;-76
2021/08/11 02:45:26;;;;;;;6.32;5.72;;;;;;;23.76;42.38;93936.34;4975041;28;20463;-75
2021/08/11 02:47:53;;;;;;;6.63;5.80;;;;;;;23.69;42.43;93944.53;4977516;28;20042;-76
2021/08/11 02:50:19;;;;;;;6.15;5.40;;;;;;;23.80;42.74;93944.50;4975945;28;20073;-76
2021/08/11 02:52:46;;;;;;;7.32;5.93;;;;;;;23.69;42.32;93943.75;4975269;28;20034;-75
2021/08/11 02:55:12;;;;;;;9.60;6.70;;;;;;;23.57;42.65;93934.06;4975317;28;20030;-76
2021/08/11 02:57:38;;;;;;;6.35;5.78;;;;;;;23.48;42.97;93936.41;4977312;28;20057;-77
2021/08/11 03:00:05;;;;;;;9.95;6.93;;;;;;;23.52;43.09;93931.75;4974347;28;20641;-76
2021/08/11 03:02:31;;;;;;;7.00;5.85;;;;;;;23.51;42.83;93924.81;4975492;28;20529;-77
2021/08/11 03:04:58;;;;;;;6.28;5.57;;;;;;;23.37;42.56;93917.41;4974857;28;20033;-76
2021/08/11 03:07:24;;;;;;;12.13;5.85;;;;;;;23.43;42.29;93928.66;4974772;28;20473;-76
2021/08/11 03:09:50;;;;;;;6.30;5.68;;;;;;;23.47;42.52;93941.06;4973863;28;20042;-77
2021/08/11 03:12:16;;;;;;;7.63;6.13;;;;;;;23.42;42.78;93937.94;4974679;28;20038;-75
2021/08/11 03:14:44;;;;;;;8.45;6.20;;;;;;;23.45;42.40;93942.63;4976782;28;20077;-76
2021/08/11 03:17:12;;;;;;;7.50;6.05;;;;;;;23.44;42.63;93930.22;4973896;28;20042;-76
2021/08/11 03:19:39;;;;;;;9.98;6.13;;;;;;;23.35;42.74;93927.13;4977349;28;20076;-76
2021/08/11 03:22:07;;;;;;;7.55;6.35;;;;;;;23.29;42.73;93929.47;4971191;28;20035;-75
2021/08/11 03:24:32;;;;;;;9.75;6.00;;;;;;;23.39;42.70;93944.94;4971682;28;20080;-76
2021/08/11 03:26:58;;;;;;;7.72;5.90;;;;;;;23.44;42.60;93951.91;4974036;28;20038;-76
2021/08/11 03:29:23;;;;;;;8.02;7.00;;;;;;;23.34;42.74;93955.44;4975600;28;20082;-75
2021/08/11 03:31:49;;;;;;;6.85;5.95;;;;;;;23.34;42.86;93941.88;4974363;28;20029;-75
2021/08/11 03:34:14;;;;;;;9.55;6.82;;;;;;;23.12;43.21;93936.47;4972564;28;20038;-76
2021/08/11 03:36:40;;;;;;;9.20;6.72;;;;;;;23.16;43.43;93947.31;4971367;28;20867;-76
2021/08/11 03:39:05;;;;;;;6.70;6.10;;;;;;;23.25;43.52;93947.69;4976103;28;20449;-77
2021/08/11 03:41:30;;;;;;;8.35;6.40;;;;;;;23.26;43.12;93954.69;4973678;28;20420;-75
2021/08/11 03:43:56;;;;;;;8.77;7.05;;;;;;;22.86;43.71;93901.63;4977611;28;20097;-76
2021/08/11 03:46:21;;;;;;;7.85;7.15;;;;;;;23.19;43.69;93953.91;4978282;28;20125;-75
2021/08/11 03:48:47;;;;;;;9.45;7.45;;;;;;;23.35;43.45;93951.56;4973687;28;20497;-76
2021/08/11 03:51:12;;;;;;;10.25;8.25;;;;;;;23.33;43.66;93954.66;4971651;28;20080;-77
2021/08/11 03:53:39;;;;;;;10.75;8.35;;;;;;;23.48;43.57;93979.81;4972263;28;20034;-76
2021/08/11 03:56:05;;;;;;;12.77;8.05;;;;;;;23.36;44.00;93963.97;4980317;28;20443;-76
2021/08/11 03:58:31;;;;;;;10.63;7.88;;;;;;;23.33;44.76;93991.88;4977063;28;20042;-77
2021/08/11 04:00:56;;;;;;;10.00;7.85;;;;;;;23.29;45.25;93988.38;4975098;28;20436;-76
2021/08/11 04:03:22;;;;;;;11.80;8.52;;;;;;;23.24;45.26;93986.84;4974742;28;20051;-77
2021/08/11 04:05:47;;;;;;;9.27;7.70;;;;;;;23.17;45.18;93968.63;4987398;28;20519;-76
2021/08/11 04:08:13;;;;;;;9.05;8.15;;;;;;;23.19;45.64;93981.03;4973187;28;20090;-77
2021/08/11 04:10:38;;;;;;;8.63;7.72;;;;;;;23.11;45.97;93970.19;4973348;28;20035;-75
2021/08/11 04:13:03;;;;;;;10.95;8.35;;;;;;;23.25;45.28;93993.03;4977097;28;20096;-77
2021/08/11 04:15:29;;;;;;;10.73;8.23;;;;;;;23.22;45.16;93974.84;4976787;28;20046;-76
2021/08/11 04:17:54;;;;;;;15.32;8.02;;;;;;;23.41;44.79;93985.28;4973171;28;20535;-76
2021/08/11 04:20:20;;;;;;;12.20;7.55;;;;;;;23.36;44.77;93955.81;4973359;28;20057;-75
2021/08/11 04:22:46;;;;;;;12.35;8.77;;;;;;;23.62;44.83;93987.97;4974906;28;20579;-75
2021/08/11 04:25:11;;;;;;;18.55;8.38;;;;;;;23.64;45.45;93990.31;4975629;28;20515;-75
2021/08/11 04:27:36;;;;;;;17.17;8.90;;;;;;;23.68;45.01;93991.06;4975812;28;20034;-76
2021/08/11 04:30:03;;;;;;;11.70;8.93;;;;;;;23.49;45.65;93978.69;4974620;28;20046;-77
2021/08/11 04:32:28;;;;;;;10.52;8.88;;;;;;;23.58;45.87;93992.63;4973118;28;20869;-76
2021/08/11 04:34:53;;;;;;;10.15;9.05;;;;;;;23.63;45.08;93981.38;4978481;28;20037;-75
2021/08/11 04:37:19;;;;;;;10.65;9.65;;;;;;;23.68;46.88;93991.84;4979289;28;20108;-76
2021/08/11 04:39:44;;;;;;;12.70;9.20;;;;;;;23.69;45.44;93987.97;4980099;28;20494;-77
2021/08/11 04:42:10;;;;;;;13.35;9.57;;;;;;;23.90;44.25;93992.56;4978067;28;20417;-76
2021/08/11 04:44:36;;;;;;;13.25;9.35;;;;;;;23.96;43.35;93977.38;4983090;28;20252;-76
2021/08/11 04:47:01;;;;;;;12.68;9.63;;;;;;;24.10;42.61;93990.16;4979501;28;20083;-77
2021/08/11 04:49:27;;;;;;;14.65;10.15;;;;;;;24.11;42.22;93983.53;4980057;28;20022;-75
2021/08/11 04:51:52;;;;;;;11.32;10.15;;;;;;;24.19;43.53;93985.88;4976997;28;20694;-76
2021/08/11 04:54:18;;;;;;;13.45;10.02;;;;;;;24.25;42.68;93994.38;4979337;28;20402;-76
2021/08/11 04:56:44;;;;;;;17.38;11.00;;;;;;;24.26;42.75;93990.50;4981056;28;20046;-76
2021/08/11 04:59:09;;;;;;;18.27;11.30;;;;;;;24.35;42.18;93988.88;4980414;28;20046;-76
2021/08/11 05:01:34;;;;;;;12.80;10.00;;;;;;;24.19;42.59;93976.94;4981235;28;20038;-77
2021/08/11 05:04:00;;;;;;;14.13;10.40;;;;;;;24.13;43.20;93986.69;4975666;28;20046;-77
2021/08/11 05:06:25;;;;;;;13.05;10.25;;;;;;;24.00;43.23;93973.47;4978716;28;20392;-76
2021/08/11 05:08:51;;;;;;;13.50;10.75;;;;;;;24.04;43.59;93970.00;4977004;28;20061;-77
2021/08/11 05:11:16;;;;;;;13.20;11.35;;;;;;;24.12;43.33;93979.69;4980792;28;20378;-76
2021/08/11 05:13:42;;;;;;;15.80;9.75;;;;;;;24.36;43.32;93981.50;4977802;28;20108;-76
2021/08/11 05:16:07;;;;;;;17.88;10.40;;;;;;;24.52;43.20;93981.81;4978590;28;20512;-76
2021/08/11 05:18:33;;;;;;;19.38;11.15;;;;;;;24.62;43.46;93985.66;4977852;28;20180;-76
2021/08/11 05:20:58;;;;;;;14.73;11.15;;;;;;;24.70;42.90;93993.34;4978769;28;20173;-76
2021/08/11 05:23:26;;;;;;;16.65;12.20;;;;;;;24.35;42.48;93982.69;4976976;28;20046;-77
2021/08/11 05:25:51;;;;;;;16.80;10.80;;;;;;;24.61;42.77;94000.41;4978407;28;20026;-76
2021/08/11 05:28:17;;;;;;;16.20;11.70;;;;;;;24.73;42.18;94003.47;4978340;28;20053;-77
2021/08/11 05:30:42;;;;;;;13.77;10.98;;;;;;;24.80;42.29;94003.41;4977891;28;20139;-76
2021/08/11 05:33:08;;;;;;;18.55;12.02;;;;;;;24.87;41.90;93996.38;4979111;28;20322;-77
2021/08/11 05:35:33;;;;;;;22.48;13.25;;;;;;;24.60;41.90;93977.88;4977415;28;20449;-76
2021/08/11 05:37:59;;;;;;;14.15;12.02;;;;;;;24.61;42.60;93998.47;4978231;28;20125;-77
2021/08/11 05:40:24;;;;;;;20.52;12.45;;;;;;;24.78;41.84;93984.00;4977810;28;20026;-76
2021/08/11 05:42:50;;;;;;;19.85;11.77;;;;;;;24.28;42.13;93909.34;4977617;28;20597;-77
2021/08/11 05:45:15;;;;;;;15.63;11.98;;;;;;;25.10;41.62;93996.59;4967086;28;20074;-76
2021/08/11 05:47:41;;;;;;;22.67;12.30;;;;;;;25.15;41.34;94005.09;4976836;28;20046;-76
2021/08/11 05:50:08;;;;;;;22.48;13.40;;;;;;;24.68;42.77;93965.78;4976145;28;20078;-76
2021/08/11 05:52:34;;;;;;;23.30;12.48;;;;;;;25.05;41.33;93991.59;4977610;28;20034;-76
2021/08/11 05:54:59;;;;;;;16.52;11.85;;;;;;;25.25;41.41;94011.63;4972802;28;20529;-76
2021/08/11 05:57:25;;;;;;;18.20;12.45;;;;;;;25.20;41.48;94010.13;4976282;28;20101;-76
2021/08/11 05:59:50;;;;;;;19.80;12.43;;;;;;;25.26;41.61;93997.63;4976905;28;20129;-77
2021/08/11 06:02:16;;;;;;;16.75;11.77;;;;;;;25.34;41.61;94009.25;4970997;28;20101;-76
2021/08/11 06:04:41;;;;;;;17.30;10.18;;;;;;;25.44;40.87;94002.94;4978889;28;20373;-76
2021/08/11 06:07:07;;;;;;;12.27;10.30;;;;;;;25.53;40.40;93999.75;4978210;28;20019;-77
2021/08/11 06:09:32;;;;;;;11.70;8.88;;;;;;;25.53;40.70;93984.19;4975273;28;20046;-77
2021/08/11 06:11:58;;;;;;;14.85;9.35;;;;;;;25.54;40.50;93991.19;4971680;28;20461;-76
2021/08/11 06:14:23;;;;;;;11.40;8.95;;;;;;;25.52;40.37;93965.50;4972921;28;20041;-76
2021/08/11 06:16:49;;;;;;;15.50;9.27;;;;;;;25.75;40.49;93984.75;4972939;28;20096;-77
2021/08/11 06:19:14;;;;;;;12.10;9.23;;;;;;;25.71;39.86;93970.41;4973697;28;20026;-78
2021/08/11 06:21:40;;;;;;;13.27;8.27;;;;;;;25.96;39.89;93972.84;4977477;28;20038;-76
2021/08/11 06:24:05;;;;;;;16.55;8.55;;;;;;;25.99;39.33;93986.47;4979070;28;20092;-77
2021/08/11 06:26:31;;;;;;;16.85;9.65;;;;;;;26.08;39.49;93980.50;4978934;28;20054;-76
2021/08/11 06:28:56;;;;;;;18.58;9.48;;;;;;;26.12;39.31;93975.78;4975026;28;20721;-76
2021/08/11 06:31:24;;;;;;;15.85;9.07;;;;;;;26.27;38.80;93971.69;4975862;28;20075;-76
2021/08/11 06:33:53;;;;;;;13.57;8.70;;;;;;;26.27;39.25;93977.16;4979721;28;20038;-77
2021/08/11 06:36:20;;;;;;;18.70;9.35;;;;;;;26.19;38.47;93972.97;4977253;28;20621;-77
2021/08/11 06:38:45;;;;;;;14.52;9.95;;;;;;;26.24;38.24;93975.25;4976366;28;20097;-76
2021/08/11 06:41:15;;;;;;;19.42;8.85;;;;;;;26.40;38.65;93980.09;4975361;28;20046;-77
2021/08/11 06:43:42;;;;;;;19.30;10.07;;;;;;;26.47;39.10;93969.91;4976988;28;20109;-76
2021/08/11 06:46:08;;;;;;;14.80;10.32;;;;;;;26.54;38.32;93975.25;4974919;28;20022;-76
2021/08/11 06:48:38;;;;;;;18.17;9.77;;;;;;;26.69;38.32;93948.53;4976714;28;20073;-76
2021/08/11 06:51:07;;;;;;;18.25;9.10;;;;;;;26.85;38.95;93954.16;4973945;28;20069;-76
2021/08/11 06:53:33;;;;;;;14.45;9.77;;;;;;;26.98;37.65;93965.28;4979400;28;20037;-78
2021/08/11 06:55:59;;;;;;;18.48;8.73;;;;;;;26.93;37.21;93952.88;4978257;28;20093;-77
2021/08/11 06:58:24;;;;;;;13.65;8.27;;;;;;;27.14;38.18;93973.59;4993679;28;20026;-76
2021/08/11 07:00:51;;;;;;;17.13;9.23;;;;;;;27.21;36.83;93973.50;4971822;28;20042;-77
2021/08/11 07:03:19;;;;;;;11.95;8.55;;;;;;;27.22;36.92;93949.69;4974730;28;20412;-77
2021/08/11 07:05:44;;;;;;;11.93;8.35;;;;;;;27.38;36.38;93966.94;4975195;28;20027;-77
2021/08/11 07:08:10;;;;;;;12.13;8.38;;;;;;;27.35;36.34;93954.13;4977460;28;20579;-76
2021/08/11 07:10:36;;;;;;;10.55;7.85;;;;;;;27.37;36.71;93975.56;4974534;28;20049;-77
2021/08/11 07:13:02;;;;;;;13.93;9.35;;;;;;;27.36;36.25;93980.25;4973645;28;20679;-76
2021/08/11 07:15:27;;;;;;;11.80;8.45;;;;;;;27.20;36.35;93971.94;4974521;28;20527;-76
2021/08/11 07:17:56;;;;;;;14.18;7.95;;;;;;;27.38;37.19;93980.59;4975172;28;20496;-77
2021/08/11 07:20:23;;;;;;;13.73;9.48;;;;;;;27.51;36.35;93986.25;4977334;28;20566;-76
2021/08/11 07:22:49;;;;;;;13.68;9.82;;;;;;;27.56;36.41;93976.81;4974003;28;20033;-78
2021/08/11 07:25:14;;;;;;;13.43;8.20;;;;;;;27.64;36.96;93978.25;4979794;28;20022;-77
2021/08/11 07:27:40;;;;;;;13.68;9.65;;;;;;;27.52;37.21;93976.09;4977324;28;20046;-77
2021/08/11 07:30:06;;;;;;;16.33;9.10;;;;;;;27.46;36.66;93970.34;4972346;28;20732;-76
2021/08/11 07:32:31;;;;;;;15.43;8.52;;;;;;;27.46;36.84;93947.72;4976955;28;20073;-77
2021/08/11 07:34:57;;;;;;;14.82;8.68;;;;;;;27.76;36.59;93980.38;4970646;28;20116;-76
2021/08/11 07:37:22;;;;;;;16.13;8.50;;;;;;;27.90;36.05;93977.38;4976540;28;20030;-77
2021/08/11 07:39:48;;;;;;;15.82;9.27;;;;;;;27.82;35.54;93967.75;4978416;28;20097;-76
2021/08/11 07:42:13;;;;;;;13.02;9.00;;;;;;;27.94;36.24;93983.53;4974228;28;20049;-77
2021/08/11 07:44:39;;;;;;;16.15;7.90;;;;;;;27.64;35.54;93956.38;4978436;28;20399;-76
2021/08/11 07:47:04;;;;;;;17.23;8.57;;;;;;;27.97;35.87;93982.69;4974829;28;20532;-76
2021/08/11 07:49:31;;;;;;;10.60;8.30;;;;;;;27.92;35.90;93988.63;4973975;28;20491;-76
2021/08/11 07:51:56;;;;;;;15.45;9.00;;;;;;;27.77;35.93;93988.13;4973461;28;20108;-77
2021/08/11 07:54:22;;;;;;;10.57;7.93;;;;;;;27.94;35.11;93985.50;4977364;28;20050;-77
2021/08/11 07:56:47;;;;;;;14.05;9.20;;;;;;;28.02;34.48;93975.94;4972570;28;20057;-76
2021/08/11 07:59:12;;;;;;;9.68;7.32;;;;;;;28.01;34.70;93969.72;4979847;28;20056;-76
2021/08/11 08:01:38;;;;;;;14.90;9.27;;;;;;;28.05;35.11;93959.50;4973936;28;20476;-77
2021/08/11 08:04:04;;;;;;;10.75;7.75;;;;;;;28.22;35.42;93960.34;4976784;28;20069;-76
2021/08/11 08:06:29;;;;;;;12.77;8.75;;;;;;;28.16;34.37;93965.53;4971093;28;20446;-77
2021/08/11 08:08:54;;;;;;;7.97;7.28;;;;;;;28.08;35.34;93972.31;4978528;28;20097;-77
2021/08/11 08:11:20;;;;;;;11.38;8.00;;;;;;;28.16;34.96;93979.22;4974489;28;20030;-77
2021/08/11 08:13:46;;;;;;;13.82;8.75;;;;;;;28.10;34.37;93975.44;4979176;28;20030;-77
2021/08/11 08:16:15;;;;;;;11.23;7.95;;;;;;;28.05;34.50;93967.69;4980638;28;20477;-76
2021/08/11 08:18:41;;;;;;;9.70;7.60;;;;;;;28.14;34.37;93978.88;4975962;28;20041;-77
2021/08/11 08:21:06;;;;;;;12.98;7.93;;;;;;;28.12;34.19;93961.34;4981034;28;20365;-77
2021/08/11 08:23:32;;;;;;;9.90;7.72;;;;;;;28.29;34.17;93968.41;4980783;28;20042;-77
2021/08/11 08:25:57;;;;;;;11.95;7.75;;;;;;;28.38;33.50;93959.63;4978605;28;20028;-78
2021/08/11 08:28:23;;;;;;;11.60;7.70;;;;;;;28.39;34.05;93951.00;4982270;28;20105;-76
2021/08/11 08:30:48;;;;;;;18.38;7.85;;;;;;;28.55;33.03;93961.97;4980161;28;20038;-77
2021/08/11 08:33:14;;;;;;;10.20;7.72;;;;;;;28.48;32.90;93953.94;4979770;28;20049;-77
2021/08/11 08:35:39;;;;;;;10.73;7.53;;;;;;;28.46;32.72;93959.03;4975730;28;20137;-76
2021/08/11 08:38:05;;;;;;;8.57;7.38;;;;;;;28.32;32.61;93956.63;4980802;28;20139;-76
2021/08/11 08:40:33;;;;;;;11.38;6.95;;;;;;;28.29;33.19;93949.28;4978146;28;20108;-76
2021/08/11 08:43:00;;;;;;;12.25;7.05;;;;;;;28.32;32.20;93950.38;4978246;28;20038;-74
2021/08/11 08:45:26;;;;;;;9.15;6.57;;;;;;;28.04;32.67;93903.28;4976920;28;20042;-75
2021/08/11 08:47:52;;;;;;;8.75;6.47;;;;;;;28.39;32.74;93944.78;4981956;28;20061;-74
2021/08/11 08:50:20;;;;;;;15.77;7.20;;;;;;;28.44;32.27;93952.47;4978076;28;20062;-75
2021/08/11 08:52:46;;;;;;;8.77;7.28;;;;;;;28.41;32.13;93932.19;4979242;28;20119;-78
2021/08/11 08:55:12;;;;;;;11.63;7.03;;;;;;;28.50;31.78;93950.78;4976945;28;20022;-78
2021/08/11 08:57:37;;;;;;;12.23;6.72;;;;;;;28.62;31.04;93930.97;4979163;28;20465;-78
2021/08/11 09:00:08;;;;;;;8.65;6.35;;;;;;;28.70;30.89;93934.31;4978119;28;20054;-77
2021/08/11 09:02:39;;;;;;;11.93;6.40;;;;;;;28.73;30.60;93925.28;4993760;28;20608;-76
2021/08/11 09:05:06;;;;;;;17.15;6.68;;;;;;;29.02;30.42;93942.56;4977617;28;20062;-76
2021/08/11 09:07:31;;;;;;;7.38;5.85;;;;;;;28.93;28.98;93926.75;4994404;28;20524;-76
2021/08/11 09:09:57;;;;;;;6.85;6.15;;;;;;;29.05;28.94;93942.47;4981104;28;20421;-76
2021/08/11 09:12:23;;;;;;;7.03;5.43;;;;;;;29.18;28.04;93934.38;4976398;28;20170;-76
2021/08/11 09:14:50;;;;;;;8.32;5.82;;;;;;;29.05;28.07;93942.47;4977543;28;20563;-76
2021/08/11 09:17:37;;;;;;;7.68;5.65;;;;;;;28.91;28.58;93937.34;4977157;28;20052;-76
2021/08/11 09:20:05;;;;;;;7.07;5.68;;;;;;;28.88;27.23;93930.00;4979438;28;20439;-77
2021/08/11 09:22:48;;;;;;;9.23;5.38;;;;;;;28.82;27.28;93934.44;4979649;28;20511;-75
2021/08/11 09:25:14;;;;;;;7.03;5.15;;;;;;;28.73;29.04;93931.53;4976106;28;20420;-75
2021/08/11 09:27:42;;;;;;;5.72;5.13;;;;;;;28.91;28.14;93942.81;4975898;28;20043;-77
2021/08/11 09:30:22;;;;;;;8.43;6.13;;;;;;;28.88;28.61;93938.19;4994160;28;20038;-76
2021/08/11 09:32:54;;;;;;;7.20;5.30;;;;;;;28.81;28.32;93934.84;4974816;28;20097;-76
2021/08/11 09:35:31;;;;;;;6.10;4.90;;;;;;;28.86;27.72;93935.13;4978592;28;20065;-76
2021/08/11 09:38:03;;;;;;;8.93;5.65;;;;;;;28.90;29.94;93937.75;4974398;28;20038;-77
2021/08/11 09:40:32;;;;;;;8.73;5.45;;;;;;;28.99;28.28;93927.75;4977655;28;20339;-76
2021/08/11 09:42:59;;;;;;;7.35;6.13;;;;;;;29.09;27.82;93921.25;4975865;28;20057;-76
2021/08/11 09:45:26;;;;;;;6.85;5.47;;;;;;;29.13;26.79;93909.44;4976559;28;20450;-76
2021/08/11 09:47:54;;;;;;;8.73;5.40;;;;;;;28.93;27.12;93913.06;4973530;28;20532;-77
2021/08/11 09:50:32;;;;;;;9.35;6.97;;;;;;;29.18;28.55;93903.50;4976455;28;20050;-77
2021/08/11 09:52:58;;;;;;;11.32;7.63;;;;;;;29.26;28.12;93907.56;4974947;28;20037;-76
2021/08/11 09:55:23;;;;;;;10.00;7.40;;;;;;;29.34;27.38;93914.41;4979048;28;20097;-76
2021/08/11 09:57:49;;;;;;;10.93;7.10;;;;;;;29.16;27.93;93897.66;4974503;28;20568;-78
2021/08/11 10:00:15;;;;;;;7.05;5.68;;;;;;;29.29;25.32;93907.47;4977155;28;20049;-78
2021/08/11 10:02:42;;;;;;;10.82;6.38;;;;;;;29.26;24.61;93910.31;4972297;28;20551;-77
2021/08/11 10:05:09;;;;;;;8.07;5.72;;;;;;;29.42;25.62;93900.09;4974694;28;20463;-76
2021/08/11 10:07:35;;;;;;;7.25;4.95;;;;;;;29.55;25.25;93902.88;4989282;28;20030;-77
2021/08/11 10:10:06;;;;;;;7.88;4.88;;;;;;;29.65;23.31;93896.34;4975562;28;20035;-76
2021/08/11 10:12:33;;;;;;;6.93;5.25;;;;;;;29.74;23.10;93887.53;4973292;28;20505;-77
2021/08/11 10:15:00;;;;;;;6.05;4.95;;;;;;;29.78;25.01;93888.97;4978753;28;20081;-77
2021/08/11 10:17:30;;;;;;;8.63;5.32;;;;;;;29.78;25.35;93882.72;4978759;28;20456;-77
2021/08/11 10:19:58;;;;;;;7.30;5.40;;;;;;;29.90;25.31;93893.72;4972811;28;20513;-76
2021/08/11 10:22:25;;;;;;;7.60;5.90;;;;;;;29.97;25.49;93884.50;4975366;28;20085;-76
2021/08/11 10:24:52;;;;;;;7.57;5.90;;;;;;;30.05;24.71;93898.81;4970503;28;20050;-76
2021/08/11 10:27:18;;;;;;;6.28;5.50;;;;;;;30.00;23.55;93893.84;4971912;28;20441;-77
2021/08/11 10:29:46;;;;;;;9.02;5.60;;;;;;;30.02;23.68;93891.44;4974370;28;20599;-77
2021/08/11 10:32:12;;;;;;;7.25;5.70;;;;;;;30.22;24.34;93895.56;4968062;28;20408;-77
2021/08/11 10:34:38;;;;;;;6.97;6.10;;;;;;;30.15;23.96;93875.78;4971258;28;20030;-77
2021/08/11 10:37:05;;;;;;;7.72;5.95;;;;;;;30.31;24.66;93886.66;4973156;28;20394;-77
2021/08/11 10:39:31;;;;;;;5.70;5.10;;;;;;;30.33;24.61;93885.03;4977068;28;20050;-77
2021/08/11 10:42:01;;;;;;;6.68;5.10;;;;;;;30.27;24.97;93881.28;4979110;28;20041;-78
2021/08/11 10:44:28;;;;;;;7.85;5.90;;;;;;;30.18;24.18;93875.69;4980833;28;20065;-76
2021/08/11 10:46:55;;;;;;;5.80;5.20;;;;;;;30.11;24.79;93855.94;4977118;28;20088;-77
2021/08/11 10:49:22;;;;;;;7.55;5.07;;;;;;;30.30;24.01;93874.97;4982974;28;20026;-76
2021/08/11 10:51:49;;;;;;;6.40;5.00;;;;;;;30.36;23.52;93862.19;4989437;28;20499;-76
2021/08/11 10:54:16;;;;;;;7.18;5.10;;;;;;;30.18;23.48;93866.69;4963849;28;20045;-78
2021/08/11 10:56:50;;;;;;;8.45;5.45;;;;;;;30.12;24.87;93860.19;4976607;28;20365;-77
2021/08/11 10:59:22;;;;;;;9.35;6.20;;;;;;;30.22;24.91;93850.91;4976948;28;20057;-76
2021/08/11 11:01:57;;;;;;;10.65;4.75;;;;;;;30.02;23.74;93831.09;4974784;28;20034;-76
2021/08/11 11:04:36;;;;;;;7.57;4.82;;;;;;;30.39;24.35;93844.13;4972974;28;20391;-76
2021/08/11 11:07:07;;;;;;;6.65;5.43;;;;;;;30.65;23.75;93847.63;4973858;28;20045;-75
2021/08/11 11:09:33;;;;;;;7.68;5.20;;;;;;;30.54;23.47;93836.97;4977417;28;20129;-77
2021/08/11 11:12:16;;;;;;;5.93;5.18;;;;;;;30.68;24.25;93833.03;4975244;28;20064;-77
2021/08/11 11:14:53;;;;;;;6.25;5.07;;;;;;;30.72;23.29;93837.19;4982066;28;20050;-76
2021/08/11 11:17:25;;;;;;;5.47;4.65;;;;;;;30.77;23.77;93836.63;4993674;28;20507;-76
2021/08/11 11:20:07;;;;;;;12.20;5.10;;;;;;;30.92;23.38;93839.69;4971708;28;20026;-78
2021/08/11 11:22:41;;;;;;;6.95;5.72;;;;;;;30.91;23.98;93835.41;4974980;28;20084;-78
2021/08/11 11:25:13;;;;;;;6.90;4.57;;;;;;;30.92;23.46;93833.41;4974762;28;20100;-78
2021/08/11 11:27:41;;;;;;;8.23;4.82;;;;;;;30.85;23.22;93830.91;4978806;28;20514;-77
2021/08/11 11:30:25;;;;;;;6.70;5.72;;;;;;;30.97;23.76;93825.38;4976357;28;20101;-77